createdAt,value
2018-02-12T00:00:46.355Z,19.95
2018-02-12T00:03:14.410Z,18.73
2018-02-12T00:05:44.190Z,32.60
2018-02-12T00:08:15.370Z,21.25
2018-02-12T00:10:48.774Z,20.52
2018-02-12T00:13:23.426Z,26.95
2018-02-12T00:15:57.078Z,17.02
2018-02-12T00:18:29.766Z,19.23
2018-02-12T00:20:58.610Z,18.50
2018-02-12T00:23:31.514Z,22.90
2018-02-12T00:26:01.402Z,18.40
2018-02-12T00:28:31.374Z,21.70
2018-02-12T00:31:00.184Z,20.12
2018-02-12T00:33:28.223Z,26.55
2018-02-12T00:36:04.206Z,20.85
2018-02-12T00:38:34.114Z,24.35
2018-02-12T00:41:02.179Z,28.83
2018-02-12T00:43:36.770Z,31.52
2018-02-12T00:46:08.490Z,24.33
2018-02-12T00:48:37.562Z,21.33
2018-02-12T00:51:08.670Z,21.15
2018-02-12T00:53:37.498Z,16.62
2018-02-12T00:56:15.775Z,15.63
2018-02-12T00:58:43.830Z,21.40
2018-02-12T01:01:12.951Z,14.43
2018-02-12T01:03:43.010Z,22.50
2018-02-12T01:06:17.002Z,19.67
2018-02-12T01:08:45.046Z,19.50
2018-02-12T01:11:14.862Z,15.70
2018-02-12T01:13:49.375Z,18.58
2018-02-12T01:16:20.461Z,22.08
2018-02-12T01:18:56.974Z,14.63
2018-02-12T01:21:29.962Z,29.75
2018-02-12T01:24:09.190Z,30.12
2018-02-12T01:26:37.222Z,31.50
2018-02-12T01:29:06.280Z,22.35
2018-02-12T01:31:39.141Z,20.00
2018-02-12T01:34:09.758Z,23.50
2018-02-12T01:36:38.030Z,17.33
2018-02-12T01:39:17.954Z,30.95
2018-02-12T01:41:51.502Z,20.05
2018-02-12T01:44:22.446Z,14.45
2018-02-12T01:46:52.126Z,16.48
2018-02-12T01:49:20.173Z,16.62
2018-02-12T01:51:54.310Z,16.08
2018-02-12T01:54:25.690Z,14.70
2018-02-12T01:57:00.438Z,23.67
2018-02-12T01:59:34.337Z,28.48
2018-02-12T02:02:07.525Z,24.20
2018-02-12T02:04:36.466Z,17.80
2018-02-12T02:07:07.957Z,22.67
2018-02-12T02:09:41.718Z,17.70
2018-02-12T02:12:13.814Z,11.05
2018-02-12T02:14:54.105Z,14.10
2018-02-12T02:17:22.156Z,17.85
2018-02-12T02:19:50.182Z,15.38
2018-02-12T02:22:20.215Z,29.20
2018-02-12T02:24:48.238Z,18.42
2018-02-12T02:27:18.193Z,18.62
2018-02-12T02:29:46.218Z,14.93
2018-02-12T02:32:14.234Z,26.50
2018-02-12T02:34:42.269Z,20.48
2018-02-12T02:37:16.818Z,15.27
2018-02-12T02:39:48.273Z,18.65
2018-02-12T02:42:17.258Z,27.77
2018-02-12T02:44:46.266Z,17.15
2018-02-12T02:47:23.457Z,19.30
2018-02-12T02:49:51.469Z,17.83
2018-02-12T02:52:20.498Z,13.52
2018-02-12T02:54:49.485Z,19.85
2018-02-12T02:57:21.470Z,16.12
2018-02-12T02:59:50.269Z,15.02
2018-02-12T03:02:22.005Z,15.55
2018-02-12T03:04:53.765Z,24.67
2018-02-12T03:07:23.781Z,14.73
2018-02-12T03:09:56.265Z,18.17
2018-02-12T03:12:26.074Z,22.23
2018-02-12T03:14:55.050Z,28.33
2018-02-12T03:17:23.070Z,14.45
2018-02-12T03:19:52.014Z,14.07
2018-02-12T03:22:21.005Z,13.88
2018-02-12T03:24:49.030Z,17.73
2018-02-12T03:27:17.050Z,19.95
2018-02-12T03:29:48.899Z,17.60
2018-02-12T03:32:21.599Z,21.90
2018-02-12T03:34:58.118Z,17.85
2018-02-12T03:37:31.689Z,15.73
2018-02-12T03:39:59.713Z,18.05
2018-02-12T03:42:27.733Z,17.37
2018-02-12T03:44:55.754Z,12.35
2018-02-12T03:47:24.753Z,12.00
2018-02-12T03:49:52.797Z,11.75
2018-02-12T03:52:21.798Z,16.73
2018-02-12T03:54:49.825Z,15.60
2018-02-12T03:57:17.845Z,12.55
2018-02-12T03:59:45.873Z,11.98
2018-02-12T04:02:14.909Z,13.50
2018-02-12T04:04:42.935Z,15.18
2018-02-12T04:07:19.873Z,13.60
2018-02-12T04:09:51.821Z,10.02
2018-02-12T04:12:19.850Z,12.80
2018-02-12T04:14:49.801Z,8.30
2018-02-12T04:17:22.593Z,14.30
2018-02-12T04:19:54.685Z,11.35
2018-02-12T04:22:25.509Z,10.40
2018-02-12T04:25:01.813Z,12.75
2018-02-12T04:27:29.845Z,14.13
2018-02-12T04:30:01.890Z,18.95
2018-02-12T04:32:33.761Z,8.00
2018-02-12T04:35:06.529Z,6.87
2018-02-12T04:37:34.565Z,15.32
2018-02-12T04:40:04.507Z,7.45
2018-02-12T04:42:33.501Z,12.05
2018-02-12T04:45:06.685Z,9.32
2018-02-12T04:47:44.461Z,10.13
2018-02-12T04:50:15.533Z,14.80
2018-02-12T04:52:44.586Z,10.88
2018-02-12T04:55:17.945Z,9.30
2018-02-12T04:57:47.725Z,15.10
2018-02-12T05:00:16.709Z,13.75
2018-02-12T05:02:48.170Z,13.38
2018-02-12T05:05:16.201Z,13.62
2018-02-12T05:07:45.230Z,8.77
2018-02-12T05:10:15.253Z,11.38
2018-02-12T05:12:44.249Z,12.32
2018-02-12T05:15:14.261Z,11.50
2018-02-12T05:17:42.297Z,12.05
2018-02-12T05:20:10.349Z,12.68
2018-02-12T05:22:39.297Z,13.88
2018-02-12T05:25:07.333Z,13.85
2018-02-12T05:27:39.725Z,11.02
2018-02-12T05:30:09.749Z,14.60
2018-02-12T05:32:44.761Z,12.65
2018-02-12T05:35:15.849Z,14.35
2018-02-12T05:37:44.645Z,15.05
2018-02-12T05:40:14.413Z,19.35
2018-02-12T05:42:42.453Z,12.65
2018-02-12T05:45:10.516Z,19.17
2018-02-12T05:47:42.861Z,12.25
2018-02-12T05:50:17.589Z,26.12
2018-02-12T05:52:49.344Z,14.68
2018-02-12T05:55:18.133Z,13.50
2018-02-12T05:57:46.160Z,23.73
2018-02-12T06:00:14.193Z,18.08
2018-02-12T06:02:43.149Z,15.45
2018-02-12T06:05:11.961Z,17.20
2018-02-12T06:07:40.921Z,18.95
2018-02-12T06:10:08.961Z,10.85
2018-02-12T06:12:37.993Z,15.65
2018-02-12T06:15:06.049Z,15.00
2018-02-12T06:17:40.749Z,16.23
2018-02-12T06:20:21.310Z,35.25
2018-02-12T06:22:49.325Z,20.88
2018-02-12T06:25:18.248Z,20.45
2018-02-12T06:27:52.113Z,17.67
2018-02-12T06:30:20.146Z,14.65
2018-02-12T06:32:48.176Z,19.12
2018-02-12T06:35:16.972Z,26.48
2018-02-12T06:37:46.945Z,22.95
2018-02-12T06:40:14.972Z,16.25
2018-02-12T06:42:48.741Z,18.23
2018-02-12T06:45:20.580Z,15.88
2018-02-12T06:47:54.892Z,23.48
2018-02-12T06:50:23.901Z,33.60
2018-02-12T06:52:51.924Z,12.57
2018-02-12T06:55:19.952Z,15.02
2018-02-12T06:57:53.320Z,12.27
2018-02-12T07:00:27.144Z,14.10
2018-02-12T07:03:05.615Z,23.40
2018-02-12T07:05:37.608Z,13.27
2018-02-12T07:08:05.643Z,18.35
2018-02-12T07:10:34.657Z,23.75
2018-02-12T07:13:02.686Z,20.48
2018-02-12T07:15:30.725Z,18.73
2018-02-12T07:18:03.480Z,10.68
2018-02-12T07:20:41.820Z,10.35
2018-02-12T07:23:12.945Z,11.35
2018-02-12T07:25:41.943Z,16.75
2018-02-12T07:28:10.932Z,10.48
2018-02-12T07:30:38.952Z,15.13
2018-02-12T07:33:08.920Z,17.48
2018-02-12T07:35:36.944Z,6.50
2018-02-12T07:38:06.892Z,12.10
2018-02-12T07:40:35.898Z,14.75
2018-02-12T07:43:04.888Z,18.95
2018-02-12T07:45:32.925Z,12.15
2018-02-12T07:48:05.673Z,11.93
2018-02-12T07:50:33.684Z,9.73
2018-02-12T07:53:11.788Z,7.35
2018-02-12T07:55:44.064Z,13.05
2018-02-12T07:58:15.854Z,6.60
2018-02-12T08:00:48.492Z,13.57
2018-02-12T08:03:20.164Z,19.83
2018-02-12T08:05:51.940Z,15.90
2018-02-12T08:08:43.736Z,7.25
2018-02-12T08:11:20.092Z,12.65
2018-02-12T08:13:54.832Z,9.60
2018-02-12T08:16:26.888Z,11.25
2018-02-12T08:19:03.279Z,8.70
2018-02-12T08:21:44.240Z,16.12
2018-02-12T08:24:12.285Z,11.77
2018-02-12T08:26:43.350Z,11.88
2018-02-12T08:29:17.956Z,12.75
2018-02-12T08:34:42.072Z,11.55
2018-02-12T08:37:20.244Z,13.80
2018-02-12T08:39:54.252Z,14.63
2018-02-12T08:42:42.596Z,13.82
2018-02-12T08:45:18.018Z,12.77
2018-02-12T08:47:46.044Z,8.10
2018-02-12T08:50:18.920Z,12.27
2018-02-12T08:52:52.587Z,6.87
2018-02-12T08:55:20.600Z,6.15
2018-02-12T08:57:48.620Z,15.20
2018-02-12T09:00:21.260Z,10.40
2018-02-12T09:02:49.280Z,10.77
2018-02-12T09:05:18.204Z,7.43
2018-02-12T09:07:49.456Z,7.43
2018-02-12T09:10:17.476Z,5.90
2018-02-12T09:12:46.413Z,15.85
2018-02-12T09:15:14.444Z,34.05
2018-02-12T09:17:48.576Z,9.43
2018-02-12T09:20:18.548Z,21.52
2018-02-12T09:23:04.053Z,10.27
2018-02-12T09:25:32.972Z,8.85
2018-02-12T09:28:06.332Z,10.52
2018-02-12T09:30:47.576Z,7.93
2018-02-12T09:33:15.600Z,11.00
2018-02-12T09:35:43.624Z,6.68
2018-02-12T09:41:07.183Z,8.75
2018-02-12T09:46:34.931Z,6.78
2018-02-12T09:49:19.312Z,13.35
2018-02-12T09:51:52.439Z,9.20
2018-02-12T09:54:20.476Z,13.45
2018-02-12T09:57:00.060Z,11.63
2018-02-12T09:59:41.076Z,7.72
2018-02-12T10:02:19.660Z,9.75
2018-02-12T10:05:11.795Z,11.30
2018-02-12T10:07:45.439Z,8.10
2018-02-12T10:10:19.877Z,15.52
2018-02-12T10:13:10.771Z,13.73
2018-02-12T10:15:46.307Z,20.10
2018-02-12T10:18:33.492Z,14.85
2018-02-12T10:21:07.979Z,7.55
2018-02-12T10:23:41.976Z,5.68
2018-02-12T10:26:13.854Z,8.63
2018-02-12T10:28:45.760Z,6.40
2018-02-12T10:31:19.707Z,4.80
2018-02-12T10:33:49.600Z,3.78
2018-02-12T10:39:18.782Z,5.03
2018-02-12T10:42:02.131Z,4.55
2018-02-12T10:44:40.112Z,4.60
2018-02-12T10:47:18.740Z,10.95
2018-02-12T10:49:49.864Z,13.82
2018-02-12T10:52:19.831Z,10.32
2018-02-12T10:54:49.751Z,13.43
2018-02-12T10:57:18.728Z,7.90
2018-02-12T10:59:47.708Z,8.00
2018-02-12T11:02:20.255Z,7.70
2018-02-12T11:04:50.231Z,6.47
2018-02-12T11:07:19.143Z,5.55
2018-02-12T11:09:48.836Z,4.25
2018-02-12T11:12:20.683Z,5.05
2018-02-12T11:14:53.423Z,5.40
2018-02-12T11:17:25.208Z,3.03
2018-02-12T11:19:54.195Z,4.22
2018-02-12T11:22:28.523Z,5.03
2018-02-12T11:24:59.776Z,6.20
2018-02-12T11:27:27.820Z,6.18
2018-02-12T11:29:59.495Z,3.60
2018-02-12T11:32:27.523Z,9.10
2018-02-12T11:34:59.887Z,7.43
2018-02-12T11:37:27.919Z,3.62
2018-02-12T11:39:55.928Z,4.20
2018-02-12T11:42:29.067Z,5.12
2018-02-12T11:44:57.979Z,5.57
2018-02-12T11:47:28.667Z,5.80
2018-02-12T11:50:03.371Z,3.72
2018-02-12T11:52:35.426Z,5.07
2018-02-12T11:55:03.403Z,5.65
2018-02-12T11:57:33.351Z,3.42
2018-02-12T12:00:02.339Z,4.65
2018-02-12T12:02:40.119Z,7.28
2018-02-12T12:05:18.808Z,9.05
2018-02-12T12:07:46.783Z,9.48
2018-02-12T12:10:14.826Z,8.40
2018-02-12T12:12:42.823Z,4.12
2018-02-12T12:15:12.739Z,4.25
2018-02-12T12:17:40.759Z,3.25
2018-02-12T12:20:12.215Z,4.45
2018-02-12T12:22:41.215Z,3.42
2018-02-12T12:25:09.243Z,3.47
2018-02-12T12:27:41.339Z,5.22
2018-02-12T12:30:09.371Z,5.03
2018-02-12T12:32:43.623Z,3.80
2018-02-12T12:35:11.646Z,4.50
2018-02-12T12:37:39.662Z,3.78
2018-02-12T12:40:07.675Z,3.20
2018-02-12T12:42:35.699Z,4.25
2018-02-12T12:45:04.615Z,2.70
2018-02-12T12:47:36.679Z,4.05
2018-02-12T12:50:06.671Z,2.35
2018-02-12T12:52:35.583Z,3.08
2018-02-12T12:55:06.323Z,2.67
2018-02-12T12:57:39.535Z,4.82
2018-02-12T13:00:07.555Z,6.90
2018-02-12T13:02:36.535Z,7.60
2018-02-12T13:05:05.527Z,3.80
2018-02-12T13:07:47.879Z,2.72
2018-02-12T13:10:18.567Z,7.97
2018-02-12T13:12:47.563Z,6.75
2018-02-12T13:15:16.543Z,4.70
2018-02-12T13:17:52.095Z,3.97
2018-02-12T13:20:20.107Z,7.97
2018-02-12T13:22:49.798Z,5.35
2018-02-12T13:25:18.783Z,4.55
2018-02-12T13:27:48.820Z,2.53
2018-02-12T13:30:20.095Z,3.53
2018-02-12T13:32:55.319Z,10.57
2018-02-12T13:35:23.343Z,3.72
2018-02-12T13:38:01.015Z,6.72
2018-02-12T13:40:29.059Z,3.85
2018-02-12T13:42:57.842Z,3.20
2018-02-12T13:45:25.863Z,2.67
2018-02-12T13:47:54.842Z,2.40
2018-02-12T13:50:27.386Z,4.43
2018-02-12T13:52:56.391Z,6.50
2018-02-12T13:55:24.423Z,4.10
2018-02-12T13:57:54.199Z,4.10
2018-02-12T14:00:32.362Z,6.37
2018-02-12T14:03:03.546Z,5.87
2018-02-12T14:05:36.163Z,3.25
2018-02-12T14:08:04.950Z,2.30
2018-02-12T14:10:33.738Z,2.60
2018-02-12T14:13:02.923Z,2.00
2018-02-12T14:15:36.243Z,3.37
2018-02-12T14:18:04.274Z,3.10
2018-02-12T14:20:33.263Z,7.00
2018-02-12T14:23:06.458Z,5.65
2018-02-12T14:25:56.194Z,8.48
2018-02-12T14:28:43.354Z,3.17
2018-02-12T14:31:14.687Z,2.90
2018-02-12T14:33:47.550Z,3.78
2018-02-12T14:36:15.555Z,4.93
2018-02-12T14:38:47.146Z,3.55
2018-02-12T14:41:18.855Z,3.03
2018-02-12T14:43:46.875Z,3.97
2018-02-12T14:46:18.683Z,9.00
2018-02-12T14:48:48.706Z,3.90
2018-02-12T14:51:18.625Z,4.95
2018-02-12T14:54:06.027Z,3.70
2018-02-12T14:56:35.999Z,3.20
2018-02-12T14:59:05.987Z,4.07
2018-02-12T15:01:57.242Z,3.67
2018-02-12T15:04:25.267Z,4.15
2018-02-12T15:07:00.558Z,6.75
2018-02-12T15:12:25.615Z,3.83
2018-02-12T15:14:54.922Z,2.78
2018-02-12T15:17:30.558Z,7.10
2018-02-12T15:20:02.215Z,8.30
2018-02-12T15:22:50.618Z,3.53
2018-02-12T15:25:19.554Z,2.60
2018-02-12T15:27:57.835Z,4.75
2018-02-12T15:30:27.786Z,8.48
2018-02-12T15:32:57.379Z,3.12
2018-02-12T15:35:26.302Z,4.10
2018-02-12T15:37:55.078Z,1.77
2018-02-12T15:40:23.107Z,6.10
2018-02-12T15:43:16.654Z,2.25
2018-02-12T15:45:57.710Z,1.65
2018-02-12T15:48:28.454Z,2.90
2018-02-12T15:50:58.346Z,1.85
2018-02-12T15:56:21.498Z,2.67
2018-02-12T15:58:54.666Z,4.07
2018-02-12T16:04:17.658Z,2.25
2018-02-12T16:06:51.124Z,5.05
2018-02-12T16:09:19.154Z,2.50
2018-02-12T16:11:49.826Z,5.20
2018-02-12T16:14:17.850Z,3.30
2018-02-12T16:16:53.362Z,5.75
2018-02-12T16:19:21.371Z,9.75
2018-02-12T16:21:51.050Z,6.20
2018-02-12T16:24:20.330Z,10.07
2018-02-12T16:26:49.181Z,16.40
2018-02-12T16:29:18.094Z,5.55
2018-02-12T16:31:46.149Z,8.65
2018-02-12T16:34:31.414Z,13.05
2018-02-12T16:36:59.452Z,25.85
2018-02-12T16:39:27.465Z,10.32
2018-02-12T16:41:58.865Z,18.67
2018-02-12T16:44:26.890Z,16.23
2018-02-12T16:46:58.481Z,10.88
2018-02-12T16:49:26.501Z,18.37
2018-02-12T16:51:54.535Z,19.62
2018-02-12T16:54:27.102Z,15.43
2018-02-12T16:56:59.870Z,15.43
2018-02-12T16:59:34.046Z,18.40
2018-02-12T17:02:02.982Z,12.13
2018-02-12T17:04:33.001Z,14.98
2018-02-12T17:07:08.414Z,10.57
2018-02-12T17:09:36.421Z,8.77
2018-02-12T17:12:10.973Z,5.78
2018-02-12T17:14:39.034Z,7.87
2018-02-12T17:17:07.821Z,9.73
2018-02-12T17:19:42.006Z,22.30
2018-02-12T17:22:20.721Z,20.83
2018-02-12T17:24:53.666Z,14.23
2018-02-12T17:27:39.954Z,19.65
2018-02-12T17:30:17.521Z,13.38
2018-02-12T17:32:47.313Z,21.27
2018-02-12T17:35:21.901Z,13.70
2018-02-12T17:37:51.861Z,16.10
2018-02-12T17:40:27.349Z,14.10
2018-02-12T17:42:55.385Z,13.65
2018-02-12T17:45:25.173Z,17.52
2018-02-12T17:47:53.205Z,13.32
2018-02-12T17:50:41.045Z,17.40
2018-02-12T17:53:09.073Z,13.57
2018-02-12T17:55:42.725Z,17.17
2018-02-12T17:58:11.674Z,20.70
2018-02-12T18:00:42.385Z,20.25
2018-02-12T18:03:18.077Z,17.15
2018-02-12T18:05:52.929Z,11.73
2018-02-12T18:08:40.121Z,9.27
2018-02-12T18:11:11.941Z,13.55
2018-02-12T18:13:48.469Z,8.35
2018-02-12T18:16:37.113Z,8.20
2018-02-12T18:19:09.446Z,5.30
2018-02-12T18:21:52.592Z,13.43
2018-02-12T18:24:25.969Z,4.85
2018-02-12T18:26:57.841Z,5.15
2018-02-12T18:29:26.629Z,6.43
2018-02-12T18:31:59.521Z,5.78
2018-02-12T18:34:29.485Z,6.07
2018-02-12T18:36:58.473Z,7.28
2018-02-12T18:39:27.513Z,10.65
2018-02-12T18:41:59.864Z,22.13
2018-02-12T18:44:36.497Z,16.50
2018-02-12T18:47:04.553Z,17.75
2018-02-12T18:49:37.270Z,24.20
2018-02-12T18:52:17.873Z,16.12
2018-02-12T18:54:49.021Z,10.10
2018-02-12T18:57:17.059Z,18.83
2018-02-12T18:59:47.765Z,27.27
2018-02-12T19:02:16.697Z,25.00
2018-02-12T19:04:49.121Z,22.02
2018-02-12T19:07:21.865Z,29.10
2018-02-12T19:09:53.605Z,22.50
2018-02-12T19:12:23.389Z,21.23
2018-02-12T19:14:56.185Z,13.88
2018-02-12T19:17:25.923Z,27.17
2018-02-12T19:19:55.901Z,27.85
2018-02-12T19:22:45.371Z,22.87
2018-02-12T19:25:19.877Z,15.13
2018-02-12T19:27:53.685Z,10.57
2018-02-12T19:30:22.693Z,12.40
2018-02-12T19:32:58.533Z,14.23
2018-02-12T19:35:33.865Z,12.15
2018-02-12T19:38:02.877Z,12.18
2018-02-12T19:40:31.873Z,11.55
2018-02-12T19:43:03.142Z,15.45
2018-02-12T19:45:31.161Z,17.87
2018-02-12T19:48:00.173Z,16.80
2018-02-12T19:50:30.220Z,22.58
2018-02-12T19:53:02.461Z,15.25
2018-02-12T19:55:31.469Z,18.17
2018-02-12T19:58:07.501Z,22.85
2018-02-12T20:00:36.516Z,23.77
2018-02-12T20:03:09.289Z,18.83
2018-02-12T20:06:00.188Z,21.25
2018-02-12T20:08:34.172Z,15.38
2018-02-12T20:11:06.885Z,15.52
2018-02-12T20:13:41.488Z,22.00
2018-02-12T20:16:15.256Z,25.02
2018-02-12T20:18:47.285Z,29.40
2018-02-12T20:21:16.101Z,16.80
2018-02-12T20:23:44.156Z,28.45
2018-02-12T20:26:15.601Z,20.33
2018-02-12T20:28:50.480Z,17.02
2018-02-12T20:31:19.521Z,20.70
2018-02-12T20:33:58.725Z,20.17
2018-02-12T20:36:27.733Z,19.65
2018-02-12T20:38:59.701Z,16.08
2018-02-12T20:41:29.729Z,15.77
2018-02-12T20:43:58.532Z,18.20
2018-02-12T20:46:27.489Z,16.42
2018-02-12T20:48:57.509Z,16.27
2018-02-12T20:51:26.569Z,17.37
2018-02-12T20:54:00.639Z,18.15
2018-02-12T20:56:30.676Z,22.15
2018-02-12T20:58:59.064Z,25.80
2018-02-12T21:01:44.456Z,15.43
2018-02-12T21:04:13.521Z,26.87
2018-02-12T21:06:42.620Z,18.58
2018-02-12T21:09:10.660Z,20.65
2018-02-12T21:11:38.753Z,27.48
2018-02-12T21:14:08.721Z,19.42
2018-02-12T21:16:36.855Z,18.25
2018-02-12T21:19:08.293Z,20.00
2018-02-12T21:21:43.007Z,14.43
2018-02-12T21:24:17.929Z,18.00
2018-02-12T21:26:46.956Z,17.20
2018-02-12T21:29:16.901Z,15.23
2018-02-12T21:31:45.912Z,15.68
2018-02-12T21:34:16.232Z,14.73
2018-02-12T21:36:44.328Z,16.70
2018-02-12T21:39:13.668Z,20.70
2018-02-12T21:41:43.668Z,19.87
2018-02-12T21:44:11.768Z,13.15
2018-02-12T21:46:43.392Z,19.05
2018-02-12T21:49:12.384Z,17.52
2018-02-12T21:51:42.416Z,19.58
2018-02-12T21:54:21.792Z,17.10
2018-02-12T21:57:08.328Z,20.10
2018-02-12T21:59:39.016Z,22.08
2018-02-12T22:02:11.004Z,16.62
2018-02-12T22:04:40.096Z,17.85
2018-02-12T22:07:08.956Z,20.60
2018-02-12T22:09:38.052Z,19.20
2018-02-12T22:12:07.112Z,23.25
2018-02-12T22:14:36.216Z,20.48
2018-02-12T22:17:10.460Z,19.52
2018-02-12T22:19:38.529Z,20.33
2018-02-12T22:22:07.596Z,23.40
2018-02-12T22:24:42.568Z,18.67
2018-02-12T22:27:15.436Z,19.70
2018-02-12T22:29:44.512Z,18.33
2018-02-12T22:32:15.844Z,26.27
2018-02-12T22:34:48.508Z,20.95
2018-02-12T22:37:19.376Z,22.75
2018-02-12T22:39:47.412Z,23.02
2018-02-12T22:42:17.412Z,20.17
2018-02-12T22:44:49.272Z,25.48
2018-02-12T22:47:26.176Z,18.12
2018-02-12T22:49:56.180Z,22.13
2018-02-12T22:52:26.220Z,26.58
2018-02-12T22:54:55.308Z,20.77
2018-02-12T22:57:26.152Z,17.90
2018-02-12T22:59:54.251Z,24.92
2018-02-12T23:02:22.344Z,24.30
2018-02-12T23:04:55.684Z,21.70
2018-02-12T23:07:28.668Z,19.35
2018-02-12T23:09:58.699Z,19.58
2018-02-12T23:12:26.752Z,22.45
2018-02-12T23:14:57.679Z,23.52
2018-02-12T23:17:28.268Z,20.05
2018-02-12T23:19:57.280Z,22.92
2018-02-12T23:22:30.352Z,20.20
2018-02-12T23:24:59.588Z,24.42
2018-02-12T23:27:28.592Z,19.77
2018-02-12T23:29:56.669Z,21.65
2018-02-12T23:32:24.696Z,25.62
2018-02-12T23:34:53.548Z,20.70
2018-02-12T23:37:23.332Z,24.58
2018-02-12T23:39:54.844Z,23.90
2018-02-12T23:42:24.679Z,20.88
2018-02-12T23:44:53.631Z,25.50
2018-02-12T23:47:28.048Z,28.70
2018-02-12T23:49:57.079Z,24.23
2018-02-12T23:52:26.060Z,18.23
2018-02-12T23:54:56.432Z,19.10
2018-02-12T23:57:29.077Z,19.25
